sensor_id;sensor_type;location;lat;lon;timestamp;temperature;humidity
16174;DHT22;14031;50.158;8.626;2022-11-20T00:00:40;4.70;99.90
16174;DHT22;14031;50.158;8.626;2022-11-20T00:03:06;4.70;99.90
16174;DHT22;14031;50.158;8.626;2022-11-20T00:05:33;4.70;99.90
16174;DHT22;14031;50.158;8.626;2022-11-20T00:08:00;4.70;99.90
16174;DHT22;14031;50.158;8.626;2022-11-20T00:10:27;4.70;99.90
16174;DHT22;14031;50.158;8.626;2022-11-20T00:12:54;4.60;99.90
16174;DHT22;14031;50.158;8.626;2022-11-20T00:15:20;4.50;99.90
16174;DHT22;14031;50.158;8.626;2022-11-20T00:17:48;4.60;99.90
16174;DHT22;14031;50.158;8.626;2022-11-20T00:20:15;4.60;99.90
16174;DHT22;14031;50.158;8.626;2022-11-20T00:22:42;4.60;99.90
16174;DHT22;14031;50.158;8.626;2022-11-20T00:25:09;4.60;99.90
16174;DHT22;14031;50.158;8.626;2022-11-20T00:27:37;4.60;99.90
16174;DHT22;14031;50.158;8.626;2022-11-20T00:30:04;4.60;99.90
16174;DHT22;14031;50.158;8.626;2022-11-20T00:32:31;4.60;99.90
16174;DHT22;14031;50.158;8.626;2022-11-20T00:34:59;4.60;99.90
16174;DHT22;14031;50.158;8.626;2022-11-20T00:37:26;4.50;99.90
16174;DHT22;14031;50.158;8.626;2022-11-20T00:39:53;4.60;99.90
16174;DHT22;14031;50.158;8.626;2022-11-20T00:42:20;4.60;99.90
16174;DHT22;14031;50.158;8.626;2022-11-20T00:44:46;4.60;99.90
16174;DHT22;14031;50.158;8.626;2022-11-20T00:47:13;4.60;99.90
16174;DHT22;14031;50.158;8.626;2022-11-20T00:49:40;4.60;99.90
16174;DHT22;14031;50.158;8.626;2022-11-20T00:52:08;4.60;99.90
16174;DHT22;14031;50.158;8.626;2022-11-20T00:54:35;4.60;99.90
16174;DHT22;14031;50.158;8.626;2022-11-20T00:57:01;4.50;99.90
16174;DHT22;14031;50.158;8.626;2022-11-20T00:59:28;4.60;99.90
16174;DHT22;14031;50.158;8.626;2022-11-20T01:01:55;4.60;99.90
16174;DHT22;14031;50.158;8.626;2022-11-20T01:04:22;4.60;99.90
16174;DHT22;14031;50.158;8.626;2022-11-20T01:06:50;4.60;99.90
16174;DHT22;14031;50.158;8.626;2022-11-20T01:09:18;4.50;99.90
16174;DHT22;14031;50.158;8.626;2022-11-20T01:11:45;4.60;99.90
16174;DHT22;14031;50.158;8.626;2022-11-20T01:14:14;4.60;99.90
16174;DHT22;14031;50.158;8.626;2022-11-20T01:16:43;4.60;99.90
16174;DHT22;14031;50.158;8.626;2022-11-20T01:19:12;4.50;99.90
16174;DHT22;14031;50.158;8.626;2022-11-20T01:21:40;4.60;99.90
16174;DHT22;14031;50.158;8.626;2022-11-20T01:24:11;4.60;99.90
16174;DHT22;14031;50.158;8.626;2022-11-20T01:26:41;4.60;99.90
16174;DHT22;14031;50.158;8.626;2022-11-20T01:29:12;4.60;99.90
16174;DHT22;14031;50.158;8.626;2022-11-20T01:31:40;4.60;99.90
16174;DHT22;14031;50.158;8.626;2022-11-20T01:34:10;4.50;99.90
16174;DHT22;14031;50.158;8.626;2022-11-20T01:36:38;4.50;99.90
16174;DHT22;14031;50.158;8.626;2022-11-20T01:39:07;4.50;99.90
16174;DHT22;14031;50.158;8.626;2022-11-20T01:41:35;4.50;99.90
16174;DHT22;14031;50.158;8.626;2022-11-20T01:44:41;4.40;99.90
16174;DHT22;14031;50.158;8.626;2022-11-20T01:47:12;4.40;99.90
16174;DHT22;14031;50.158;8.626;2022-11-20T01:49:43;4.50;99.90
16174;DHT22;14031;50.158;8.626;2022-11-20T01:52:17;4.40;99.90
16174;DHT22;14031;50.158;8.626;2022-11-20T01:54:48;4.40;99.90
16174;DHT22;14031;50.158;8.626;2022-11-20T01:57:16;4.30;99.90
16174;DHT22;14031;50.158;8.626;2022-11-20T01:59:50;4.40;99.90
16174;DHT22;14031;50.158;8.626;2022-11-20T02:02:20;4.40;99.90
16174;DHT22;14031;50.158;8.626;2022-11-20T02:04:47;4.40;99.90
16174;DHT22;14031;50.158;8.626;2022-11-20T02:07:14;4.40;99.90
16174;DHT22;14031;50.158;8.626;2022-11-20T02:09:42;4.50;99.90
16174;DHT22;14031;50.158;8.626;2022-11-20T02:12:09;4.40;99.90
16174;DHT22;14031;50.158;8.626;2022-11-20T02:14:58;4.40;99.90
16174;DHT22;14031;50.158;8.626;2022-11-20T02:17:24;4.40;99.90
16174;DHT22;14031;50.158;8.626;2022-11-20T02:19:51;4.40;99.90
16174;DHT22;14031;50.158;8.626;2022-11-20T02:22:22;4.50;99.90
16174;DHT22;14031;50.158;8.626;2022-11-20T02:24:53;4.50;99.90
16174;DHT22;14031;50.158;8.626;2022-11-20T02:27:20;4.50;99.90
16174;DHT22;14031;50.158;8.626;2022-11-20T02:29:50;4.40;99.90
16174;DHT22;14031;50.158;8.626;2022-11-20T02:32:19;4.50;99.90
16174;DHT22;14031;50.158;8.626;2022-11-20T02:34:46;4.40;99.90
16174;DHT22;14031;50.158;8.626;2022-11-20T02:37:13;4.40;99.90
16174;DHT22;14031;50.158;8.626;2022-11-20T02:39:40;4.40;99.90
16174;DHT22;14031;50.158;8.626;2022-11-20T02:42:09;4.40;99.90
16174;DHT22;14031;50.158;8.626;2022-11-20T02:44:36;4.40;99.90
16174;DHT22;14031;50.158;8.626;2022-11-20T02:47:03;4.30;99.90
16174;DHT22;14031;50.158;8.626;2022-11-20T02:49:29;4.30;99.90
16174;DHT22;14031;50.158;8.626;2022-11-20T02:51:56;4.30;99.90
16174;DHT22;14031;50.158;8.626;2022-11-20T02:54:23;4.30;99.90
16174;DHT22;14031;50.158;8.626;2022-11-20T02:56:50;4.30;99.90
16174;DHT22;14031;50.158;8.626;2022-11-20T02:59:18;4.20;99.90
16174;DHT22;14031;50.158;8.626;2022-11-20T03:01:45;4.20;99.90
16174;DHT22;14031;50.158;8.626;2022-11-20T03:04:11;4.20;99.90
16174;DHT22;14031;50.158;8.626;2022-11-20T03:06:38;4.20;99.90
16174;DHT22;14031;50.158;8.626;2022-11-20T03:09:05;4.20;99.90
16174;DHT22;14031;50.158;8.626;2022-11-20T03:11:32;4.10;99.90
16174;DHT22;14031;50.158;8.626;2022-11-20T03:14:02;4.20;99.90
16174;DHT22;14031;50.158;8.626;2022-11-20T03:16:30;4.20;99.90
16174;DHT22;14031;50.158;8.626;2022-11-20T03:18:57;4.20;99.90
16174;DHT22;14031;50.158;8.626;2022-11-20T03:21:24;4.20;99.90
16174;DHT22;14031;50.158;8.626;2022-11-20T03:23:51;4.20;99.90
16174;DHT22;14031;50.158;8.626;2022-11-20T03:26:20;4.20;99.90
16174;DHT22;14031;50.158;8.626;2022-11-20T03:28:48;4.20;99.90
16174;DHT22;14031;50.158;8.626;2022-11-20T03:31:17;4.20;99.90
16174;DHT22;14031;50.158;8.626;2022-11-20T03:33:46;4.30;99.90
16174;DHT22;14031;50.158;8.626;2022-11-20T03:36:14;4.20;99.90
16174;DHT22;14031;50.158;8.626;2022-11-20T03:38:44;4.20;99.90
16174;DHT22;14031;50.158;8.626;2022-11-20T03:41:13;4.20;99.90
16174;DHT22;14031;50.158;8.626;2022-11-20T03:43:40;4.10;99.90
16174;DHT22;14031;50.158;8.626;2022-11-20T03:46:07;4.20;99.90
16174;DHT22;14031;50.158;8.626;2022-11-20T03:48:34;4.10;99.90
16174;DHT22;14031;50.158;8.626;2022-11-20T03:51:10;4.20;99.90
16174;DHT22;14031;50.158;8.626;2022-11-20T03:53:37;4.20;99.90
16174;DHT22;14031;50.158;8.626;2022-11-20T03:56:04;4.20;99.90
16174;DHT22;14031;50.158;8.626;2022-11-20T03:58:33;4.20;99.90
16174;DHT22;14031;50.158;8.626;2022-11-20T04:01:05;4.10;99.90
16174;DHT22;14031;50.158;8.626;2022-11-20T04:03:32;4.10;99.90
16174;DHT22;14031;50.158;8.626;2022-11-20T04:06:02;4.10;99.90
16174;DHT22;14031;50.158;8.626;2022-11-20T04:08:31;4.10;99.90
16174;DHT22;14031;50.158;8.626;2022-11-20T04:11:08;4.10;99.90
16174;DHT22;14031;50.158;8.626;2022-11-20T04:13:35;4.00;99.90
16174;DHT22;14031;50.158;8.626;2022-11-20T04:16:02;4.00;99.90
16174;DHT22;14031;50.158;8.626;2022-11-20T04:18:28;4.00;99.90
16174;DHT22;14031;50.158;8.626;2022-11-20T04:20:56;4.00;99.90
16174;DHT22;14031;50.158;8.626;2022-11-20T04:23:23;4.00;99.90
16174;DHT22;14031;50.158;8.626;2022-11-20T04:25:51;4.10;99.90
16174;DHT22;14031;50.158;8.626;2022-11-20T04:28:18;4.00;99.90
16174;DHT22;14031;50.158;8.626;2022-11-20T04:30:45;4.10;99.90
16174;DHT22;14031;50.158;8.626;2022-11-20T04:33:12;4.10;99.90
16174;DHT22;14031;50.158;8.626;2022-11-20T04:35:39;4.10;99.90
16174;DHT22;14031;50.158;8.626;2022-11-20T04:38:08;4.10;99.90
16174;DHT22;14031;50.158;8.626;2022-11-20T04:40:36;4.00;99.90
16174;DHT22;14031;50.158;8.626;2022-11-20T04:43:04;4.10;99.90
16174;DHT22;14031;50.158;8.626;2022-11-20T04:45:31;4.10;99.90
16174;DHT22;14031;50.158;8.626;2022-11-20T04:47:58;4.10;99.90
16174;DHT22;14031;50.158;8.626;2022-11-20T04:50:26;4.10;99.90
16174;DHT22;14031;50.158;8.626;2022-11-20T04:52:53;4.00;99.90
16174;DHT22;14031;50.158;8.626;2022-11-20T04:55:19;4.00;99.90
16174;DHT22;14031;50.158;8.626;2022-11-20T04:57:49;4.10;99.90
16174;DHT22;14031;50.158;8.626;2022-11-20T05:00:18;4.10;99.90
16174;DHT22;14031;50.158;8.626;2022-11-20T05:02:45;4.10;99.90
16174;DHT22;14031;50.158;8.626;2022-11-20T05:05:15;4.00;99.90
16174;DHT22;14031;50.158;8.626;2022-11-20T05:07:42;3.90;99.90
16174;DHT22;14031;50.158;8.626;2022-11-20T05:10:09;4.00;99.90
16174;DHT22;14031;50.158;8.626;2022-11-20T05:12:36;4.10;99.90
16174;DHT22;14031;50.158;8.626;2022-11-20T05:15:03;4.10;99.90
16174;DHT22;14031;50.158;8.626;2022-11-20T05:17:31;4.10;99.90
16174;DHT22;14031;50.158;8.626;2022-11-20T05:19:58;4.10;99.90
16174;DHT22;14031;50.158;8.626;2022-11-20T05:22:24;4.00;99.90
16174;DHT22;14031;50.158;8.626;2022-11-20T05:24:51;4.00;99.90
16174;DHT22;14031;50.158;8.626;2022-11-20T05:27:18;4.10;99.90
16174;DHT22;14031;50.158;8.626;2022-11-20T05:29:45;4.00;99.90
16174;DHT22;14031;50.158;8.626;2022-11-20T05:32:11;4.10;99.90
16174;DHT22;14031;50.158;8.626;2022-11-20T05:34:39;4.10;99.90
16174;DHT22;14031;50.158;8.626;2022-11-20T05:37:06;4.10;99.90
16174;DHT22;14031;50.158;8.626;2022-11-20T05:39:33;4.10;99.90
16174;DHT22;14031;50.158;8.626;2022-11-20T05:42:00;4.10;99.90
16174;DHT22;14031;50.158;8.626;2022-11-20T05:44:44;4.10;99.90
16174;DHT22;14031;50.158;8.626;2022-11-20T05:47:11;4.10;99.90
16174;DHT22;14031;50.158;8.626;2022-11-20T05:49:37;4.10;99.90
16174;DHT22;14031;50.158;8.626;2022-11-20T05:52:05;4.10;99.90
16174;DHT22;14031;50.158;8.626;2022-11-20T05:54:35;4.30;99.90
16174;DHT22;14031;50.158;8.626;2022-11-20T05:57:08;4.30;99.90
16174;DHT22;14031;50.158;8.626;2022-11-20T05:59:45;4.20;99.90
16174;DHT22;14031;50.158;8.626;2022-11-20T06:02:12;4.20;99.90
16174;DHT22;14031;50.158;8.626;2022-11-20T06:04:39;4.20;99.90
16174;DHT22;14031;50.158;8.626;2022-11-20T06:07:07;4.20;99.90
16174;DHT22;14031;50.158;8.626;2022-11-20T06:09:34;4.20;99.90
16174;DHT22;14031;50.158;8.626;2022-11-20T06:12:08;4.20;99.90
16174;DHT22;14031;50.158;8.626;2022-11-20T06:14:34;4.30;99.90
16174;DHT22;14031;50.158;8.626;2022-11-20T06:17:01;4.30;99.90
16174;DHT22;14031;50.158;8.626;2022-11-20T06:19:30;4.30;99.90
16174;DHT22;14031;50.158;8.626;2022-11-20T06:21:58;4.20;99.90
16174;DHT22;14031;50.158;8.626;2022-11-20T06:24:26;4.20;99.90
16174;DHT22;14031;50.158;8.626;2022-11-20T06:26:53;4.30;99.90
16174;DHT22;14031;50.158;8.626;2022-11-20T06:29:20;4.20;99.90
16174;DHT22;14031;50.158;8.626;2022-11-20T06:31:46;4.30;99.90
16174;DHT22;14031;50.158;8.626;2022-11-20T06:34:13;4.20;99.90
16174;DHT22;14031;50.158;8.626;2022-11-20T06:36:40;4.20;99.90
16174;DHT22;14031;50.158;8.626;2022-11-20T06:39:07;4.30;99.90
16174;DHT22;14031;50.158;8.626;2022-11-20T06:41:35;4.30;99.90
16174;DHT22;14031;50.158;8.626;2022-11-20T06:44:03;4.30;99.90
16174;DHT22;14031;50.158;8.626;2022-11-20T06:46:30;4.30;99.90
16174;DHT22;14031;50.158;8.626;2022-11-20T06:48:57;4.30;99.90
16174;DHT22;14031;50.158;8.626;2022-11-20T06:51:24;4.20;99.90
16174;DHT22;14031;50.158;8.626;2022-11-20T06:53:51;4.20;99.90
16174;DHT22;14031;50.158;8.626;2022-11-20T06:56:18;4.20;99.90
16174;DHT22;14031;50.158;8.626;2022-11-20T06:58:46;4.20;99.90
16174;DHT22;14031;50.158;8.626;2022-11-20T07:01:14;4.20;99.90
16174;DHT22;14031;50.158;8.626;2022-11-20T07:03:41;4.30;99.90
16174;DHT22;14031;50.158;8.626;2022-11-20T07:06:08;4.20;99.90
16174;DHT22;14031;50.158;8.626;2022-11-20T07:08:35;4.30;99.90
16174;DHT22;14031;50.158;8.626;2022-11-20T07:11:03;4.30;99.90
16174;DHT22;14031;50.158;8.626;2022-11-20T07:13:31;4.30;99.90
16174;DHT22;14031;50.158;8.626;2022-11-20T07:16:01;4.30;99.90
16174;DHT22;14031;50.158;8.626;2022-11-20T07:18:28;4.30;99.90
16174;DHT22;14031;50.158;8.626;2022-11-20T07:20:55;4.30;99.90
16174;DHT22;14031;50.158;8.626;2022-11-20T07:23:22;4.30;99.90
16174;DHT22;14031;50.158;8.626;2022-11-20T07:25:49;4.20;99.90
16174;DHT22;14031;50.158;8.626;2022-11-20T07:28:15;4.20;99.90
16174;DHT22;14031;50.158;8.626;2022-11-20T07:30:49;4.20;99.90
16174;DHT22;14031;50.158;8.626;2022-11-20T07:33:18;4.20;99.90
16174;DHT22;14031;50.158;8.626;2022-11-20T07:35:45;4.30;99.90
16174;DHT22;14031;50.158;8.626;2022-11-20T07:38:12;4.30;99.90
16174;DHT22;14031;50.158;8.626;2022-11-20T07:40:39;4.30;99.90
16174;DHT22;14031;50.158;8.626;2022-11-20T07:43:06;4.30;99.90
16174;DHT22;14031;50.158;8.626;2022-11-20T07:45:32;4.30;99.90
16174;DHT22;14031;50.158;8.626;2022-11-20T07:47:59;4.30;99.90
16174;DHT22;14031;50.158;8.626;2022-11-20T07:50:27;4.30;99.90
16174;DHT22;14031;50.158;8.626;2022-11-20T07:53:00;4.30;99.90
16174;DHT22;14031;50.158;8.626;2022-11-20T07:55:27;4.40;99.90
16174;DHT22;14031;50.158;8.626;2022-11-20T07:57:55;4.40;99.90
16174;DHT22;14031;50.158;8.626;2022-11-20T08:00:22;4.40;99.90
16174;DHT22;14031;50.158;8.626;2022-11-20T08:02:49;4.50;99.90
16174;DHT22;14031;50.158;8.626;2022-11-20T08:05:16;4.40;99.90
16174;DHT22;14031;50.158;8.626;2022-11-20T08:07:44;4.40;99.90
16174;DHT22;14031;50.158;8.626;2022-11-20T08:10:13;4.50;99.90
16174;DHT22;14031;50.158;8.626;2022-11-20T08:12:44;4.40;99.90
16174;DHT22;14031;50.158;8.626;2022-11-20T08:15:28;4.50;99.90
16174;DHT22;14031;50.158;8.626;2022-11-20T08:17:59;4.50;99.90
16174;DHT22;14031;50.158;8.626;2022-11-20T08:20:26;4.60;99.90
16174;DHT22;14031;50.158;8.626;2022-11-20T08:22:59;4.60;99.90
16174;DHT22;14031;50.158;8.626;2022-11-20T08:25:26;4.60;99.90
16174;DHT22;14031;50.158;8.626;2022-11-20T08:27:53;4.60;99.90
16174;DHT22;14031;50.158;8.626;2022-11-20T08:30:20;4.70;99.90
16174;DHT22;14031;50.158;8.626;2022-11-20T08:32:46;4.70;99.90
16174;DHT22;14031;50.158;8.626;2022-11-20T08:35:13;4.80;99.90
16174;DHT22;14031;50.158;8.626;2022-11-20T08:37:40;4.80;99.90
16174;DHT22;14031;50.158;8.626;2022-11-20T08:40:11;4.80;99.90
16174;DHT22;14031;50.158;8.626;2022-11-20T08:42:46;4.90;99.90
16174;DHT22;14031;50.158;8.626;2022-11-20T08:45:13;5.00;99.90
16174;DHT22;14031;50.158;8.626;2022-11-20T08:47:39;4.90;99.90
16174;DHT22;14031;50.158;8.626;2022-11-20T08:50:07;5.00;99.90
16174;DHT22;14031;50.158;8.626;2022-11-20T08:52:34;5.00;99.90
16174;DHT22;14031;50.158;8.626;2022-11-20T08:55:01;5.00;99.90
16174;DHT22;14031;50.158;8.626;2022-11-20T08:57:31;5.10;99.90
16174;DHT22;14031;50.158;8.626;2022-11-20T08:59:58;5.20;99.90
16174;DHT22;14031;50.158;8.626;2022-11-20T09:02:24;5.20;99.90
16174;DHT22;14031;50.158;8.626;2022-11-20T09:04:52;5.30;99.90
16174;DHT22;14031;50.158;8.626;2022-11-20T09:07:19;5.20;99.90
16174;DHT22;14031;50.158;8.626;2022-11-20T09:09:46;5.20;99.90
16174;DHT22;14031;50.158;8.626;2022-11-20T09:12:13;5.30;99.90
16174;DHT22;14031;50.158;8.626;2022-11-20T09:14:41;5.30;99.90
16174;DHT22;14031;50.158;8.626;2022-11-20T09:17:09;5.30;99.90
16174;DHT22;14031;50.158;8.626;2022-11-20T09:19:39;5.30;99.90
16174;DHT22;14031;50.158;8.626;2022-11-20T09:22:06;5.30;99.90
16174;DHT22;14031;50.158;8.626;2022-11-20T09:24:33;5.40;99.90
16174;DHT22;14031;50.158;8.626;2022-11-20T09:27:02;5.60;99.90
16174;DHT22;14031;50.158;8.626;2022-11-20T09:29:29;5.70;99.90
16174;DHT22;14031;50.158;8.626;2022-11-20T09:31:57;5.70;99.90
16174;DHT22;14031;50.158;8.626;2022-11-20T09:34:24;5.80;99.90
16174;DHT22;14031;50.158;8.626;2022-11-20T09:36:51;5.90;99.90
16174;DHT22;14031;50.158;8.626;2022-11-20T09:39:17;6.00;99.90
16174;DHT22;14031;50.158;8.626;2022-11-20T09:41:56;6.00;99.90
16174;DHT22;14031;50.158;8.626;2022-11-20T09:47:34;6.20;99.90
16174;DHT22;14031;50.158;8.626;2022-11-20T09:50:18;6.30;99.90
16174;DHT22;14031;50.158;8.626;2022-11-20T09:52:54;6.40;99.90
16174;DHT22;14031;50.158;8.626;2022-11-20T09:55:24;6.40;99.90
16174;DHT22;14031;50.158;8.626;2022-11-20T09:57:52;6.50;99.90
16174;DHT22;14031;50.158;8.626;2022-11-20T10:00:19;6.50;99.90
16174;DHT22;14031;50.158;8.626;2022-11-20T10:02:52;6.70;99.90
16174;DHT22;14031;50.158;8.626;2022-11-20T10:05:24;6.80;99.90
16174;DHT22;14031;50.158;8.626;2022-11-20T10:07:56;6.90;99.90
16174;DHT22;14031;50.158;8.626;2022-11-20T10:10:31;7.00;99.90
16174;DHT22;14031;50.158;8.626;2022-11-20T10:13:12;7.00;99.90
16174;DHT22;14031;50.158;8.626;2022-11-20T10:15:47;7.00;99.90
16174;DHT22;14031;50.158;8.626;2022-11-20T10:18:36;7.00;99.90
16174;DHT22;14031;50.158;8.626;2022-11-20T10:21:12;7.10;99.90
16174;DHT22;14031;50.158;8.626;2022-11-20T10:24:16;6.90;99.90
16174;DHT22;14031;50.158;8.626;2022-11-20T10:26:59;6.80;99.90
16174;DHT22;14031;50.158;8.626;2022-11-20T10:29:32;6.80;99.90
16174;DHT22;14031;50.158;8.626;2022-11-20T10:32:02;6.70;99.90
16174;DHT22;14031;50.158;8.626;2022-11-20T10:34:35;6.70;99.90
16174;DHT22;14031;50.158;8.626;2022-11-20T10:37:09;6.60;99.90
16174;DHT22;14031;50.158;8.626;2022-11-20T10:39:42;6.60;99.90
16174;DHT22;14031;50.158;8.626;2022-11-20T10:42:13;6.60;99.90
16174;DHT22;14031;50.158;8.626;2022-11-20T10:44:43;6.60;99.90
16174;DHT22;14031;50.158;8.626;2022-11-20T10:47:30;6.60;99.90
16174;DHT22;14031;50.158;8.626;2022-11-20T10:50:03;6.60;99.90
16174;DHT22;14031;50.158;8.626;2022-11-20T10:52:38;6.60;99.90
16174;DHT22;14031;50.158;8.626;2022-11-20T10:55:27;6.60;99.90
16174;DHT22;14031;50.158;8.626;2022-11-20T10:58:03;6.60;99.90
16174;DHT22;14031;50.158;8.626;2022-11-20T11:00:32;6.60;99.90
16174;DHT22;14031;50.158;8.626;2022-11-20T11:02:59;6.60;99.90
16174;DHT22;14031;50.158;8.626;2022-11-20T11:05:36;6.60;99.90
16174;DHT22;14031;50.158;8.626;2022-11-20T11:08:07;6.60;99.90
16174;DHT22;14031;50.158;8.626;2022-11-20T11:10:41;6.60;99.90
16174;DHT22;14031;50.158;8.626;2022-11-20T11:13:20;6.80;99.90
16174;DHT22;14031;50.158;8.626;2022-11-20T11:15:46;6.60;99.90
16174;DHT22;14031;50.158;8.626;2022-11-20T11:18:23;6.70;99.90
16174;DHT22;14031;50.158;8.626;2022-11-20T11:20:53;6.60;99.90
16174;DHT22;14031;50.158;8.626;2022-11-20T11:23:31;6.70;99.90
16174;DHT22;14031;50.158;8.626;2022-11-20T11:26:00;6.70;99.90
16174;DHT22;14031;50.158;8.626;2022-11-20T11:28:27;6.70;99.90
16174;DHT22;14031;50.158;8.626;2022-11-20T11:30:55;6.70;99.90
16174;DHT22;14031;50.158;8.626;2022-11-20T11:33:23;6.80;99.90
16174;DHT22;14031;50.158;8.626;2022-11-20T11:35:53;6.80;99.90
16174;DHT22;14031;50.158;8.626;2022-11-20T11:38:27;6.80;99.90
16174;DHT22;14031;50.158;8.626;2022-11-20T11:40:56;6.90;99.90
16174;DHT22;14031;50.158;8.626;2022-11-20T11:43:25;6.90;99.90
16174;DHT22;14031;50.158;8.626;2022-11-20T11:46:31;6.90;99.90
16174;DHT22;14031;50.158;8.626;2022-11-20T11:48:59;6.90;99.90
16174;DHT22;14031;50.158;8.626;2022-11-20T11:51:32;7.00;99.90
16174;DHT22;14031;50.158;8.626;2022-11-20T11:54:05;7.00;99.90
16174;DHT22;14031;50.158;8.626;2022-11-20T11:56:37;7.10;99.90
16174;DHT22;14031;50.158;8.626;2022-11-20T11:59:09;7.10;99.90
16174;DHT22;14031;50.158;8.626;2022-11-20T12:01:44;7.20;99.90
16174;DHT22;14031;50.158;8.626;2022-11-20T12:04:17;7.20;99.90
16174;DHT22;14031;50.158;8.626;2022-11-20T12:06:51;7.30;99.90
16174;DHT22;14031;50.158;8.626;2022-11-20T12:09:22;7.30;99.90
16174;DHT22;14031;50.158;8.626;2022-11-20T12:11:54;7.40;99.90
16174;DHT22;14031;50.158;8.626;2022-11-20T12:14:29;7.50;99.90
16174;DHT22;14031;50.158;8.626;2022-11-20T12:16:58;7.50;99.90
16174;DHT22;14031;50.158;8.626;2022-11-20T12:19:25;7.50;99.90
16174;DHT22;14031;50.158;8.626;2022-11-20T12:21:59;7.50;99.90
16174;DHT22;14031;50.158;8.626;2022-11-20T12:24:42;7.50;99.90
16174;DHT22;14031;50.158;8.626;2022-11-20T12:30:10;7.40;99.90
16174;DHT22;14031;50.158;8.626;2022-11-20T12:33:08;7.40;99.90
16174;DHT22;14031;50.158;8.626;2022-11-20T12:35:48;7.30;99.90
16174;DHT22;14031;50.158;8.626;2022-11-20T12:38:54;7.30;99.90
16174;DHT22;14031;50.158;8.626;2022-11-20T12:41:39;7.30;99.90
16174;DHT22;14031;50.158;8.626;2022-11-20T12:44:40;7.30;99.90
16174;DHT22;14031;50.158;8.626;2022-11-20T12:47:33;7.20;99.90
16174;DHT22;14031;50.158;8.626;2022-11-20T12:50:11;7.20;99.90
16174;DHT22;14031;50.158;8.626;2022-11-20T12:52:47;7.20;99.90
16174;DHT22;14031;50.158;8.626;2022-11-20T12:55:25;7.20;99.90
16174;DHT22;14031;50.158;8.626;2022-11-20T12:57:58;7.20;99.90
16174;DHT22;14031;50.158;8.626;2022-11-20T13:00:30;7.20;99.90
16174;DHT22;14031;50.158;8.626;2022-11-20T13:03:23;7.30;99.90
16174;DHT22;14031;50.158;8.626;2022-11-20T13:06:01;7.30;99.90
16174;DHT22;14031;50.158;8.626;2022-11-20T13:08:33;7.30;99.90
16174;DHT22;14031;50.158;8.626;2022-11-20T13:11:08;7.20;99.90
16174;DHT22;14031;50.158;8.626;2022-11-20T13:13:44;7.10;99.90
16174;DHT22;14031;50.158;8.626;2022-11-20T13:16:17;7.20;99.90
16174;DHT22;14031;50.158;8.626;2022-11-20T13:18:45;7.10;99.90
16174;DHT22;14031;50.158;8.626;2022-11-20T13:21:17;7.20;99.90
16174;DHT22;14031;50.158;8.626;2022-11-20T13:23:44;7.10;99.90
16174;DHT22;14031;50.158;8.626;2022-11-20T13:26:18;7.10;99.90
16174;DHT22;14031;50.158;8.626;2022-11-20T13:28:47;7.10;99.90
16174;DHT22;14031;50.158;8.626;2022-11-20T13:31:29;7.10;99.90
16174;DHT22;14031;50.158;8.626;2022-11-20T13:33:57;7.10;99.90
16174;DHT22;14031;50.158;8.626;2022-11-20T13:36:27;7.20;99.90
16174;DHT22;14031;50.158;8.626;2022-11-20T13:38:55;7.20;99.90
16174;DHT22;14031;50.158;8.626;2022-11-20T13:41:26;7.30;99.90
16174;DHT22;14031;50.158;8.626;2022-11-20T13:44:05;7.30;99.90
16174;DHT22;14031;50.158;8.626;2022-11-20T13:46:37;7.40;99.90
16174;DHT22;14031;50.158;8.626;2022-11-20T13:49:09;7.40;99.90
16174;DHT22;14031;50.158;8.626;2022-11-20T13:51:42;7.40;99.90
16174;DHT22;14031;50.158;8.626;2022-11-20T14:00:21;7.30;99.90
16174;DHT22;14031;50.158;8.626;2022-11-20T14:03:01;7.20;99.90
16174;DHT22;14031;50.158;8.626;2022-11-20T14:05:28;7.30;99.90
16174;DHT22;14031;50.158;8.626;2022-11-20T14:07:58;7.30;99.90
16174;DHT22;14031;50.158;8.626;2022-11-20T14:10:27;7.20;99.90
16174;DHT22;14031;50.158;8.626;2022-11-20T14:12:56;7.20;99.90
16174;DHT22;14031;50.158;8.626;2022-11-20T14:15:25;7.20;99.90
16174;DHT22;14031;50.158;8.626;2022-11-20T14:17:53;7.10;99.90
16174;DHT22;14031;50.158;8.626;2022-11-20T14:20:20;7.10;99.90
16174;DHT22;14031;50.158;8.626;2022-11-20T14:22:51;7.10;99.90
16174;DHT22;14031;50.158;8.626;2022-11-20T14:25:20;7.10;99.90
16174;DHT22;14031;50.158;8.626;2022-11-20T14:27:52;7.10;99.90
16174;DHT22;14031;50.158;8.626;2022-11-20T14:30:23;7.20;99.90
16174;DHT22;14031;50.158;8.626;2022-11-20T14:32:53;7.20;99.90
16174;DHT22;14031;50.158;8.626;2022-11-20T14:35:24;7.20;99.90
16174;DHT22;14031;50.158;8.626;2022-11-20T14:37:51;7.20;99.90
16174;DHT22;14031;50.158;8.626;2022-11-20T14:40:27;7.30;99.90
16174;DHT22;14031;50.158;8.626;2022-11-20T14:42:54;7.20;99.90
16174;DHT22;14031;50.158;8.626;2022-11-20T14:45:23;7.20;99.90
16174;DHT22;14031;50.158;8.626;2022-11-20T14:47:52;7.10;99.90
16174;DHT22;14031;50.158;8.626;2022-11-20T14:50:22;7.20;99.90
16174;DHT22;14031;50.158;8.626;2022-11-20T14:52:54;7.10;99.90
16174;DHT22;14031;50.158;8.626;2022-11-20T14:55:29;7.20;99.90
16174;DHT22;14031;50.158;8.626;2022-11-20T14:57:57;7.20;99.90
16174;DHT22;14031;50.158;8.626;2022-11-20T15:00:25;7.20;99.90
16174;DHT22;14031;50.158;8.626;2022-11-20T15:02:52;7.20;99.90
16174;DHT22;14031;50.158;8.626;2022-11-20T15:05:21;7.20;99.90
16174;DHT22;14031;50.158;8.626;2022-11-20T15:07:50;7.10;99.90
16174;DHT22;14031;50.158;8.626;2022-11-20T15:10:22;7.10;99.90
16174;DHT22;14031;50.158;8.626;2022-11-20T15:12:51;7.10;99.90
16174;DHT22;14031;50.158;8.626;2022-11-20T15:15:21;7.10;99.90
16174;DHT22;14031;50.158;8.626;2022-11-20T15:17:51;7.00;99.90
16174;DHT22;14031;50.158;8.626;2022-11-20T15:20:18;7.00;99.90
16174;DHT22;14031;50.158;8.626;2022-11-20T15:22:45;7.00;99.90
16174;DHT22;14031;50.158;8.626;2022-11-20T15:25:13;6.90;99.90
16174;DHT22;14031;50.158;8.626;2022-11-20T15:27:40;7.00;99.90
16174;DHT22;14031;50.158;8.626;2022-11-20T15:30:13;7.10;99.90
16174;DHT22;14031;50.158;8.626;2022-11-20T15:32:40;7.10;99.90
16174;DHT22;14031;50.158;8.626;2022-11-20T15:35:09;7.10;99.90
16174;DHT22;14031;50.158;8.626;2022-11-20T15:37:37;7.20;99.90
16174;DHT22;14031;50.158;8.626;2022-11-20T15:40:06;7.20;99.90
16174;DHT22;14031;50.158;8.626;2022-11-20T15:42:33;7.20;99.90
16174;DHT22;14031;50.158;8.626;2022-11-20T15:45:00;7.30;99.90
16174;DHT22;14031;50.158;8.626;2022-11-20T15:47:29;7.30;99.90
16174;DHT22;14031;50.158;8.626;2022-11-20T15:49:56;7.30;99.90
16174;DHT22;14031;50.158;8.626;2022-11-20T15:52:25;7.30;99.90
16174;DHT22;14031;50.158;8.626;2022-11-20T15:54:52;7.40;99.90
16174;DHT22;14031;50.158;8.626;2022-11-20T15:57:18;7.40;99.90
16174;DHT22;14031;50.158;8.626;2022-11-20T15:59:45;7.50;99.90
16174;DHT22;14031;50.158;8.626;2022-11-20T16:02:12;7.50;99.90
16174;DHT22;14031;50.158;8.626;2022-11-20T16:04:39;7.50;99.90
16174;DHT22;14031;50.158;8.626;2022-11-20T16:07:07;7.50;99.90
16174;DHT22;14031;50.158;8.626;2022-11-20T16:09:35;7.50;99.90
16174;DHT22;14031;50.158;8.626;2022-11-20T16:12:02;7.50;99.90
16174;DHT22;14031;50.158;8.626;2022-11-20T16:14:29;7.50;99.90